createdAt,value
2022-12-13T00:01:27.846Z,62.63
2022-12-13T00:03:56.601Z,52.87
2022-12-13T00:06:23.471Z,57.07
2022-12-13T00:08:50.326Z,57.63
2022-12-13T00:11:17.985Z,53.60
2022-12-13T00:13:46.694Z,59.13
2022-12-13T00:16:16.691Z,52.90
2022-12-13T00:18:44.093Z,55.57
2022-12-13T00:21:17.044Z,52.27
2022-12-13T00:23:43.979Z,60.40
2022-12-13T00:26:15.036Z,46.20
2022-12-13T00:28:42.609Z,48.60
2022-12-13T00:31:44.644Z,54.30
2022-12-13T00:33:57.185Z,53.50
2022-12-13T00:36:23.845Z,52.87
2022-12-13T00:39:10.750Z,52.17
2022-12-13T00:41:37.471Z,42.77
2022-12-13T00:44:05.169Z,49.17
2022-12-13T00:46:32.377Z,59.23
2022-12-13T00:49:01.100Z,52.07
2022-12-13T00:51:30.615Z,58.03
2022-12-13T00:53:58.006Z,53.20
2022-12-13T00:56:27.649Z,53.13
2022-12-13T00:58:55.353Z,51.07
2022-12-13T01:01:25.555Z,50.00
2022-12-13T01:03:56.755Z,55.57
2022-12-13T01:06:27.354Z,51.63
2022-12-13T01:08:54.015Z,49.60
2022-12-13T01:11:20.772Z,50.90
2022-12-13T01:13:48.023Z,54.27
2022-12-13T01:16:15.225Z,55.73
2022-12-13T01:18:42.259Z,52.27
2022-12-13T01:21:15.045Z,53.53
2022-12-13T01:23:42.082Z,53.53
2022-12-13T01:26:12.739Z,48.97
2022-12-13T01:28:40.137Z,55.37
2022-12-13T01:31:09.997Z,55.23
2022-12-13T01:33:37.044Z,55.40
2022-12-13T01:36:05.983Z,52.70
2022-12-13T01:38:37.941Z,53.30
2022-12-13T01:41:16.927Z,50.13
2022-12-13T01:43:44.637Z,49.30
2022-12-13T01:46:12.185Z,45.57
2022-12-13T01:48:50.114Z,50.70
2022-12-13T01:51:21.566Z,57.40
2022-12-13T01:53:50.291Z,47.70
2022-12-13T01:56:26.885Z,36.77
2022-12-13T01:58:56.451Z,45.67
2022-12-13T02:01:24.164Z,42.43
2022-12-13T02:03:50.990Z,48.03
2022-12-13T02:06:23.214Z,50.17
2022-12-13T02:08:49.906Z,41.47
2022-12-13T02:11:17.250Z,50.33
2022-12-13T02:13:43.922Z,50.37
2022-12-13T02:16:29.376Z,42.13
2022-12-13T02:19:21.240Z,45.70
2022-12-13T02:21:50.900Z,42.60
2022-12-13T02:24:43.812Z,44.33
2022-12-13T02:27:30.834Z,40.70
2022-12-13T02:30:30.513Z,51.33
2022-12-13T02:33:11.703Z,43.77
2022-12-13T02:35:58.282Z,48.43
2022-12-13T02:38:56.068Z,43.47
2022-12-13T02:41:50.140Z,40.20
2022-12-13T02:44:25.517Z,45.73
2022-12-13T02:46:57.439Z,45.27
2022-12-13T02:49:27.868Z,41.43
2022-12-13T02:51:56.689Z,47.30
2022-12-13T02:54:24.867Z,46.07
2022-12-13T02:56:59.977Z,42.77
2022-12-13T02:59:36.268Z,44.63
2022-12-13T03:02:32.467Z,38.20
2022-12-13T03:05:26.769Z,47.90
2022-12-13T03:08:11.576Z,42.93
2022-12-13T03:10:54.990Z,39.70
2022-12-13T03:13:38.912Z,42.93
2022-12-13T03:16:14.919Z,36.47
2022-12-13T03:18:53.864Z,43.67
2022-12-13T03:21:20.835Z,42.37
2022-12-13T03:23:47.826Z,35.90
2022-12-13T03:26:18.747Z,40.67
2022-12-13T03:28:45.691Z,41.07
2022-12-13T03:31:12.558Z,44.90
2022-12-13T03:33:39.296Z,40.73
2022-12-13T03:36:07.032Z,43.87
2022-12-13T03:38:34.025Z,48.23
2022-12-13T03:41:04.583Z,41.17
2022-12-13T03:43:31.548Z,39.13
2022-12-13T03:45:58.292Z,47.53
2022-12-13T03:48:25.108Z,39.13
2022-12-13T03:50:53.886Z,56.17
2022-12-13T03:53:33.718Z,57.00
2022-12-13T03:56:03.611Z,44.97
2022-12-13T03:58:35.014Z,44.83
2022-12-13T04:01:09.158Z,45.63
2022-12-13T04:03:37.336Z,50.33
2022-12-13T04:06:05.060Z,45.03
2022-12-13T04:08:32.290Z,39.70
2022-12-13T04:10:59.115Z,41.53
2022-12-13T04:13:34.591Z,41.50
2022-12-13T04:16:02.717Z,39.93
2022-12-13T04:18:29.697Z,46.57
2022-12-13T04:20:57.542Z,42.57
2022-12-13T04:23:24.465Z,41.93
2022-12-13T04:25:51.545Z,43.23
2022-12-13T04:28:21.413Z,39.97
2022-12-13T04:30:53.198Z,42.57
2022-12-13T04:33:22.479Z,48.30
2022-12-13T04:35:49.741Z,43.17
2022-12-13T04:38:16.725Z,43.43
2022-12-13T04:40:43.405Z,45.53
2022-12-13T04:43:10.133Z,46.63
2022-12-13T04:45:36.864Z,47.80
2022-12-13T04:48:03.858Z,43.60
2022-12-13T04:50:30.686Z,43.63
2022-12-13T04:52:57.434Z,43.83
2022-12-13T04:55:24.084Z,45.83
2022-12-13T04:57:50.894Z,48.57
2022-12-13T05:00:17.754Z,47.40
2022-12-13T05:02:44.556Z,40.17
2022-12-13T05:05:12.008Z,43.87
2022-12-13T05:07:42.031Z,54.42
2022-12-13T05:10:10.491Z,46.43
2022-12-13T05:12:37.225Z,47.33
2022-12-13T05:15:04.400Z,45.27
2022-12-13T05:17:31.831Z,43.90
2022-12-13T05:19:58.498Z,44.90
2022-12-13T05:22:25.242Z,44.77
2022-12-13T05:24:51.907Z,49.03
2022-12-13T05:27:24.664Z,43.47
2022-12-13T05:30:03.408Z,44.63
2022-12-13T05:32:43.816Z,49.30
2022-12-13T05:35:22.751Z,48.27
2022-12-13T05:37:54.250Z,44.17
2022-12-13T05:40:22.437Z,45.67
2022-12-13T05:42:49.344Z,47.83
2022-12-13T05:45:18.124Z,47.70
2022-12-13T05:47:45.745Z,51.60
2022-12-13T05:50:13.282Z,52.83
2022-12-13T05:52:40.365Z,47.90
2022-12-13T05:55:07.488Z,54.57
2022-12-13T05:57:35.220Z,50.93
2022-12-13T06:00:02.292Z,42.23
2022-12-13T06:02:29.139Z,45.60
2022-12-13T06:04:55.912Z,48.73
2022-12-13T06:07:22.615Z,48.67
2022-12-13T06:09:49.350Z,48.37
2022-12-13T06:12:31.854Z,54.67
2022-12-13T06:15:01.024Z,47.80
2022-12-13T06:17:36.832Z,52.90
2022-12-13T06:20:24.107Z,45.53
2022-12-13T06:22:54.674Z,48.63
2022-12-13T06:25:31.237Z,47.33
2022-12-13T06:28:01.044Z,52.13
2022-12-13T06:30:29.556Z,46.10
2022-12-13T06:32:56.861Z,52.60
2022-12-13T06:35:28.335Z,51.07
2022-12-13T06:38:01.264Z,61.83
2022-12-13T06:40:30.599Z,59.37
2022-12-13T06:42:57.520Z,51.03
2022-12-13T06:45:24.535Z,47.17
2022-12-13T06:47:51.244Z,43.47
2022-12-13T06:50:18.033Z,56.37
2022-12-13T06:52:46.855Z,53.63
2022-12-13T06:58:01.133Z,52.37
2022-12-13T07:00:36.811Z,48.80
2022-12-13T07:03:05.081Z,57.37
2022-12-13T07:05:31.892Z,55.17
2022-12-13T07:07:58.803Z,53.43
2022-12-13T07:10:25.503Z,52.23
2022-12-13T07:12:52.189Z,53.17
2022-12-13T07:15:18.965Z,58.03
2022-12-13T07:17:50.212Z,52.70
2022-12-13T07:20:17.115Z,51.53
2022-12-13T07:22:48.493Z,55.07
2022-12-13T07:25:27.190Z,51.93
2022-12-13T07:28:14.401Z,54.00
2022-12-13T07:30:42.001Z,51.27
2022-12-13T07:33:09.484Z,50.13
2022-12-13T07:35:37.781Z,58.97
2022-12-13T07:38:06.114Z,55.77
2022-12-13T07:40:37.599Z,51.23
2022-12-13T07:43:05.701Z,49.20
2022-12-13T07:45:32.894Z,54.47
2022-12-13T07:48:04.439Z,65.03
2022-12-13T07:50:37.011Z,53.70
2022-12-13T07:53:08.576Z,50.20
2022-12-13T07:55:36.566Z,55.70
2022-12-13T07:58:21.529Z,57.87
2022-12-13T08:00:48.765Z,53.47
2022-12-13T08:03:25.447Z,53.97
2022-12-13T08:06:10.455Z,53.53
2022-12-13T08:08:38.205Z,54.00
2022-12-13T08:11:06.312Z,61.00
2022-12-13T08:13:33.929Z,59.30
2022-12-13T08:16:02.988Z,57.17
2022-12-13T08:18:30.535Z,56.43
2022-12-13T08:21:01.900Z,57.30
2022-12-13T08:23:30.598Z,54.33
2022-12-13T08:25:57.689Z,53.03
2022-12-13T08:28:27.230Z,60.80
2022-12-13T08:30:54.292Z,58.47
2022-12-13T08:33:21.741Z,58.03
2022-12-13T08:35:48.834Z,61.97
2022-12-13T08:38:15.489Z,46.90
2022-12-13T08:40:51.667Z,62.67
2022-12-13T08:43:18.710Z,56.37
2022-12-13T08:45:51.792Z,56.17
2022-12-13T08:48:18.791Z,59.27
2022-12-13T08:50:45.705Z,58.57
2022-12-13T08:53:29.608Z,56.57
2022-12-13T08:56:01.913Z,51.97
2022-12-13T08:58:29.318Z,56.53
2022-12-13T09:00:56.255Z,52.50
2022-12-13T09:03:23.524Z,61.90
2022-12-13T09:05:50.574Z,62.70
2022-12-13T09:08:24.105Z,54.03
2022-12-13T09:10:59.680Z,57.07
2022-12-13T09:13:31.298Z,49.70
2022-12-13T09:16:03.945Z,54.60
2022-12-13T09:18:36.558Z,57.87
2022-12-13T09:21:12.670Z,58.80
2022-12-13T09:23:46.277Z,58.70
2022-12-13T09:26:15.284Z,57.03
2022-12-13T09:28:42.424Z,62.27
2022-12-13T09:31:18.638Z,61.80
2022-12-13T09:33:46.608Z,56.30
2022-12-13T09:36:16.249Z,56.33
2022-12-13T09:38:43.479Z,71.37
2022-12-13T09:41:28.564Z,62.67
2022-12-13T09:44:03.292Z,69.60
2022-12-13T09:46:44.970Z,55.47
2022-12-13T09:49:23.216Z,82.93
2022-12-13T09:52:11.181Z,96.03
2022-12-13T09:54:47.824Z,57.23
2022-12-13T09:57:32.220Z,55.50
2022-12-13T10:00:14.688Z,61.30
2022-12-13T10:03:14.735Z,53.47
2022-12-13T10:05:45.867Z,57.27
2022-12-13T10:08:25.202Z,57.57
2022-12-13T10:10:53.185Z,54.43
2022-12-13T10:13:22.382Z,57.23
2022-12-13T10:16:04.642Z,58.13
2022-12-13T10:18:40.018Z,65.70
2022-12-13T10:21:27.855Z,59.43
2022-12-13T10:26:41.670Z,56.07
2022-12-13T10:29:10.008Z,52.00
2022-12-13T10:31:45.729Z,59.30
2022-12-13T10:34:29.786Z,61.57
2022-12-13T10:36:59.592Z,53.73
2022-12-13T10:39:39.945Z,58.33
2022-12-13T10:42:22.875Z,53.97
2022-12-13T10:45:10.509Z,52.93
2022-12-13T10:47:37.346Z,53.50
2022-12-13T10:50:04.221Z,61.30
2022-12-13T10:52:43.383Z,56.37
2022-12-13T10:55:28.720Z,55.93
2022-12-13T10:58:07.394Z,55.93
2022-12-13T11:00:45.260Z,61.00
2022-12-13T11:03:32.427Z,61.10
2022-12-13T11:06:15.467Z,52.77
2022-12-13T11:08:42.097Z,51.47
2022-12-13T11:11:10.147Z,50.87
2022-12-13T11:13:54.256Z,55.70
2022-12-13T11:16:26.830Z,56.87
2022-12-13T11:19:02.945Z,51.23
2022-12-13T11:21:32.737Z,51.07
2022-12-13T11:24:02.604Z,45.67
2022-12-13T11:26:32.574Z,42.00
2022-12-13T11:29:34.318Z,39.60
2022-12-13T11:32:22.571Z,44.33
2022-12-13T11:35:09.226Z,44.97
2022-12-13T11:38:02.325Z,43.77
2022-12-13T11:41:00.653Z,39.10
2022-12-13T11:43:44.199Z,39.83
2022-12-13T11:46:19.755Z,38.23
2022-12-13T11:49:00.460Z,41.20
2022-12-13T11:51:36.204Z,43.37
2022-12-13T11:54:25.232Z,40.83
2022-12-13T11:57:00.606Z,42.17
2022-12-13T11:59:39.834Z,46.73
2022-12-13T12:02:25.808Z,40.37
2022-12-13T12:05:00.037Z,39.03
2022-12-13T12:08:12.610Z,46.37
2022-12-13T12:10:45.721Z,46.43
2022-12-13T12:13:24.568Z,46.57
2022-12-13T12:16:06.594Z,38.83
2022-12-13T12:18:33.444Z,45.33
2022-12-13T12:21:05.167Z,45.10
2022-12-13T12:23:44.345Z,45.07
2022-12-13T12:26:21.819Z,40.17
2022-12-13T12:29:10.657Z,39.80
2022-12-13T12:32:03.604Z,42.27
2022-12-13T12:34:50.120Z,42.97
2022-12-13T12:37:26.853Z,39.90
2022-12-13T12:40:52.131Z,42.33
2022-12-13T12:43:37.464Z,41.73
2022-12-13T12:46:13.279Z,37.57
2022-12-13T12:49:03.006Z,44.80
2022-12-13T12:51:51.173Z,39.07
2022-12-13T12:54:32.447Z,39.80
2022-12-13T12:57:56.726Z,40.27
2022-12-13T13:00:50.440Z,41.30
2022-12-13T13:03:26.998Z,41.03
2022-12-13T13:06:01.878Z,42.77
2022-12-13T13:09:07.551Z,48.67
2022-12-13T13:11:43.212Z,46.03
2022-12-13T13:14:28.276Z,40.10
2022-12-13T13:16:55.816Z,44.77
2022-12-13T13:19:43.181Z,53.70
2022-12-13T13:22:43.465Z,43.60
2022-12-13T13:25:22.999Z,45.67
2022-12-13T13:27:53.566Z,41.17
2022-12-13T13:30:22.526Z,44.60
2022-12-13T13:32:51.572Z,46.20
2022-12-13T13:35:33.515Z,48.70
2022-12-13T13:38:05.278Z,46.70
2022-12-13T13:40:37.142Z,50.27
2022-12-13T13:43:06.844Z,55.60
2022-12-13T13:45:54.569Z,48.23
2022-12-13T13:48:36.921Z,47.47
2022-12-13T13:51:03.562Z,58.57
2022-12-13T13:53:42.848Z,48.57
2022-12-13T13:56:21.679Z,52.10
2022-12-13T13:58:51.514Z,54.40
2022-12-13T14:01:59.642Z,50.70
2022-12-13T14:05:06.579Z,48.20
2022-12-13T14:07:51.266Z,53.87
2022-12-13T14:10:37.371Z,57.20
2022-12-13T14:13:23.121Z,47.87
2022-12-13T14:16:27.628Z,54.43
2022-12-13T14:19:16.805Z,52.37
2022-12-13T14:21:52.343Z,52.53
2022-12-13T14:24:39.695Z,50.47
2022-12-13T14:27:18.516Z,53.50
2022-12-13T14:29:57.852Z,54.53
2022-12-13T14:32:31.034Z,45.93
2022-12-13T14:34:59.514Z,50.00
2022-12-13T14:37:56.671Z,62.67
2022-12-13T14:40:51.810Z,52.00
2022-12-13T14:43:32.823Z,52.23
2022-12-13T14:46:01.248Z,50.30
2022-12-13T14:48:33.793Z,58.07
2022-12-13T14:51:00.565Z,59.17
2022-12-13T14:53:43.007Z,56.30
2022-12-13T14:56:28.267Z,66.53
2022-12-13T14:59:01.313Z,59.53
2022-12-13T15:01:37.184Z,64.13
2022-12-13T15:04:22.742Z,59.93
2022-12-13T15:06:58.630Z,57.57
2022-12-13T15:09:29.174Z,64.40
2022-12-13T15:12:14.580Z,56.27
2022-12-13T15:14:45.326Z,60.20
2022-12-13T15:17:32.322Z,61.27
2022-12-13T15:20:00.472Z,58.57
2022-12-13T15:22:29.639Z,60.90
2022-12-13T15:24:58.016Z,62.90
2022-12-13T15:27:25.650Z,61.50
2022-12-13T15:29:54.375Z,58.03
2022-12-13T15:32:23.295Z,58.17
2022-12-13T15:34:51.550Z,60.63
2022-12-13T15:37:44.657Z,63.37
2022-12-13T15:40:15.013Z,63.33
2022-12-13T15:42:47.111Z,55.57
2022-12-13T15:45:23.464Z,68.37
2022-12-13T15:47:51.227Z,73.20
2022-12-13T15:50:35.195Z,73.80
2022-12-13T15:53:35.937Z,64.27
2022-12-13T15:56:09.503Z,60.20
2022-12-13T15:58:37.253Z,61.10
2022-12-13T16:01:06.745Z,57.97
2022-12-13T16:03:44.644Z,57.60
2022-12-13T16:06:18.226Z,57.57
2022-12-13T16:08:49.442Z,60.60
2022-12-13T16:11:26.757Z,59.43
2022-12-13T16:13:58.229Z,65.07
2022-12-13T16:16:31.351Z,62.77
2022-12-13T16:19:00.616Z,57.60
2022-12-13T16:21:28.811Z,68.37
2022-12-13T16:23:55.467Z,65.93
2022-12-13T16:26:26.163Z,65.70
2022-12-13T16:28:53.878Z,66.53
2022-12-13T16:31:25.564Z,62.90
2022-12-13T16:33:52.666Z,62.57
2022-12-13T16:36:19.511Z,69.03
2022-12-13T16:38:46.327Z,67.40
2022-12-13T16:41:14.721Z,59.87
2022-12-13T16:43:55.924Z,65.93
2022-12-13T16:47:13.327Z,76.27
2022-12-13T16:49:26.589Z,76.73
2022-12-13T16:51:54.005Z,70.93
2022-12-13T16:54:22.337Z,70.07
2022-12-13T16:56:50.005Z,63.80
2022-12-13T16:59:20.157Z,68.97
2022-12-13T17:01:47.046Z,68.00
2022-12-13T17:04:20.528Z,74.27
2022-12-13T17:06:50.014Z,73.40
2022-12-13T17:09:17.617Z,71.17
2022-12-13T17:11:44.404Z,64.43
2022-12-13T17:14:11.476Z,67.17
2022-12-13T17:16:38.253Z,66.37
2022-12-13T17:19:05.235Z,67.63
2022-12-13T17:21:32.111Z,74.30
2022-12-13T17:24:01.104Z,67.00
2022-12-13T17:26:29.418Z,63.50
2022-12-13T17:28:56.382Z,74.60
2022-12-13T17:31:23.289Z,73.47
2022-12-13T17:33:50.196Z,69.57
2022-12-13T17:36:17.416Z,76.00
2022-12-13T17:38:46.548Z,68.17
2022-12-13T17:41:14.775Z,81.47
2022-12-13T17:43:42.974Z,73.70
2022-12-13T17:46:17.541Z,62.50
2022-12-13T17:48:45.612Z,68.33
2022-12-13T17:51:14.036Z,71.50
2022-12-13T17:53:42.314Z,79.10
2022-12-13T17:56:12.259Z,78.90
2022-12-13T17:58:40.106Z,75.03
2022-12-13T18:01:15.824Z,72.20
2022-12-13T18:03:43.299Z,74.67
2022-12-13T18:06:10.620Z,76.33
2022-12-13T18:08:39.422Z,73.53
2022-12-13T18:13:55.283Z,67.47
2022-12-13T18:16:34.110Z,79.95
2022-12-13T18:19:08.105Z,76.60
2022-12-13T18:21:36.648Z,98.10
2022-12-13T18:24:04.025Z,81.00
2022-12-13T18:26:30.764Z,83.67
2022-12-13T18:28:57.603Z,82.90
2022-12-13T18:31:25.456Z,78.20
2022-12-13T18:33:53.869Z,76.37
2022-12-13T18:36:24.188Z,75.10
2022-12-13T18:38:51.488Z,74.27
2022-12-13T18:41:22.138Z,70.97
2022-12-13T18:43:55.838Z,70.33
2022-12-13T18:46:23.008Z,77.43
2022-12-13T18:48:49.833Z,75.60
2022-12-13T18:51:18.284Z,59.20
2022-12-13T18:53:45.613Z,66.23
2022-12-13T18:56:18.736Z,70.20
2022-12-13T18:58:46.595Z,74.40
2022-12-13T19:01:14.562Z,63.80
2022-12-13T19:03:43.977Z,67.10
2022-12-13T19:06:16.682Z,70.37
2022-12-13T19:08:43.635Z,74.73
2022-12-13T19:11:10.916Z,69.30
2022-12-13T19:13:37.744Z,73.93
2022-12-13T19:16:07.883Z,66.07
2022-12-13T19:18:35.699Z,74.47
2022-12-13T19:21:02.690Z,72.17
2022-12-13T19:23:29.959Z,69.67
2022-12-13T19:25:56.958Z,72.90
2022-12-13T19:28:23.806Z,71.37
2022-12-13T19:30:50.503Z,77.97
2022-12-13T19:33:18.431Z,73.83
2022-12-13T19:35:46.953Z,79.60
2022-12-13T19:38:13.795Z,78.33
2022-12-13T19:40:41.943Z,81.87
2022-12-13T19:43:09.050Z,81.33
2022-12-13T19:45:35.903Z,64.10
2022-12-13T19:48:02.660Z,67.77
2022-12-13T19:50:29.867Z,85.07
2022-12-13T19:52:56.507Z,85.80
2022-12-13T19:55:23.207Z,72.27
2022-12-13T19:57:50.043Z,83.07
2022-12-13T20:00:17.398Z,76.13
2022-12-13T20:02:44.211Z,89.47
2022-12-13T20:05:11.354Z,86.03
2022-12-13T20:07:38.107Z,90.10
2022-12-13T20:10:05.935Z,77.93
2022-12-13T20:12:37.197Z,90.07
2022-12-13T20:15:08.689Z,86.03
2022-12-13T20:17:35.787Z,78.83
2022-12-13T20:20:04.028Z,85.47
2022-12-13T20:22:31.818Z,76.70
2022-12-13T20:24:58.660Z,82.30
2022-12-13T20:27:26.137Z,83.47
2022-12-13T20:29:53.542Z,86.73
2022-12-13T20:32:21.106Z,77.67
2022-12-13T20:34:51.737Z,87.00
2022-12-13T20:37:21.758Z,83.87
2022-12-13T20:39:49.118Z,86.93
2022-12-13T20:42:15.958Z,81.50
2022-12-13T20:44:42.566Z,82.17
2022-12-13T20:47:09.685Z,81.33
2022-12-13T20:49:36.533Z,93.53
2022-12-13T20:52:03.533Z,77.87
2022-12-13T20:54:30.327Z,86.33
2022-12-13T20:56:57.015Z,89.67
2022-12-13T20:59:24.113Z,97.83
2022-12-13T21:01:50.942Z,85.83
2022-12-13T21:04:18.281Z,82.27
2022-12-13T21:06:44.948Z,88.77
2022-12-13T21:09:12.085Z,84.07
2022-12-13T21:11:41.720Z,90.50
2022-12-13T21:14:18.779Z,90.53
2022-12-13T21:16:59.967Z,84.77
2022-12-13T21:19:31.889Z,88.37
2022-12-13T21:22:02.099Z,85.10
2022-12-13T21:24:29.539Z,99.53
2022-12-13T21:26:56.749Z,83.03
2022-12-13T21:29:24.248Z,79.53
2022-12-13T21:31:51.117Z,86.03
2022-12-13T21:34:18.565Z,103.57
2022-12-13T21:36:47.611Z,88.60
2022-12-13T21:39:18.652Z,91.13
2022-12-13T21:41:45.733Z,93.07
2022-12-13T21:44:14.989Z,85.73
2022-12-13T21:49:29.399Z,91.03
2022-12-13T21:51:56.101Z,80.60
2022-12-13T21:54:22.894Z,82.40
2022-12-13T21:57:08.909Z,91.70
2022-12-13T21:59:35.641Z,79.63
2022-12-13T22:02:12.604Z,79.50
2022-12-13T22:04:53.067Z,85.97
2022-12-13T22:07:33.798Z,85.93
2022-12-13T22:10:01.785Z,71.80
2022-12-13T22:12:37.125Z,86.13
2022-12-13T22:15:06.223Z,78.83
2022-12-13T22:17:35.990Z,83.87
2022-12-13T22:20:13.706Z,86.10
2022-12-13T22:22:42.465Z,76.50
2022-12-13T22:25:09.498Z,80.60
2022-12-13T22:27:36.479Z,76.90
2022-12-13T22:30:03.997Z,82.90
2022-12-13T22:32:32.207Z,78.53
2022-12-13T22:34:59.062Z,79.90
2022-12-13T22:37:26.327Z,81.83
2022-12-13T22:39:53.106Z,83.67
2022-12-13T22:42:20.514Z,75.73
2022-12-13T22:44:47.711Z,79.40
2022-12-13T22:47:14.427Z,76.50
2022-12-13T22:49:41.117Z,67.97
2022-12-13T22:52:07.923Z,71.30
2022-12-13T22:54:34.618Z,74.40
2022-12-13T22:57:01.269Z,77.23
2022-12-13T22:59:28.045Z,54.63
2022-12-13T23:02:02.663Z,71.93
2022-12-13T23:04:30.765Z,70.00
2022-12-13T23:06:57.532Z,59.43
2022-12-13T23:09:24.215Z,65.57
2022-12-13T23:12:09.614Z,69.17
2022-12-13T23:14:36.220Z,67.33
2022-12-13T23:17:05.846Z,69.73
2022-12-13T23:19:49.601Z,69.97
2022-12-13T23:22:18.933Z,67.27
2022-12-13T23:24:45.910Z,55.27
2022-12-13T23:27:12.658Z,58.77
2022-12-13T23:29:39.362Z,65.53
2022-12-13T23:32:06.151Z,67.07
2022-12-13T23:34:32.908Z,59.40
2022-12-13T23:36:59.576Z,60.90
2022-12-13T23:39:26.591Z,63.40
2022-12-13T23:41:53.256Z,61.57
2022-12-13T23:44:19.919Z,65.90
2022-12-13T23:46:48.517Z,63.47
2022-12-13T23:49:16.618Z,57.70
2022-12-13T23:51:43.423Z,62.40
2022-12-13T23:54:15.018Z,67.87
2022-12-13T23:56:42.004Z,66.83
2022-12-13T23:59:08.723Z,59.57
